createdAt,value
2018-08-23T00:01:32.890Z,96924.05
2018-08-23T00:06:27.565Z,96923.67
2018-08-23T00:11:28.623Z,96928.31
2018-08-23T00:16:33.557Z,96931.05
2018-08-23T00:21:28.746Z,96935.38
2018-08-23T00:26:23.434Z,96931.18
2018-08-23T00:31:18.140Z,96930.46
2018-08-23T00:36:12.827Z,96936.09
2018-08-23T00:41:07.576Z,96934.63
2018-08-23T00:46:06.287Z,96942.41
2018-08-23T00:51:01.719Z,96941.12
2018-08-23T00:56:21.783Z,96939.64
2018-08-23T01:01:16.554Z,96947.23
2018-08-23T01:06:11.277Z,96935.13
2018-08-23T01:11:07.043Z,96937.55
2018-08-23T01:16:01.811Z,96934.76
2018-08-23T01:20:56.603Z,96935.49
2018-08-23T01:25:51.712Z,96940.72
2018-08-23T01:30:47.145Z,96942.45
2018-08-23T01:35:43.541Z,96928.14
2018-08-23T01:40:38.037Z,96920.94
2018-08-23T01:45:32.536Z,96904.06
2018-08-23T01:50:27.613Z,96895.66
2018-08-23T01:55:23.224Z,96890.48
2018-08-23T02:00:34.463Z,96885.77
2018-08-23T02:05:29.040Z,96887.72
2018-08-23T02:10:23.555Z,96897.54
2018-08-23T02:15:18.129Z,96901.86
2018-08-23T02:20:12.705Z,96904.23
2018-08-23T02:25:07.868Z,96908.11
2018-08-23T02:30:02.417Z,96911.00
2018-08-23T02:35:07.008Z,96918.59
2018-08-23T02:40:01.826Z,96909.42
2018-08-23T02:44:58.510Z,96910.14
2018-08-23T02:49:53.256Z,96907.73
2018-08-23T02:54:47.979Z,96892.60
2018-08-23T02:59:42.492Z,96887.50
2018-08-23T03:04:36.956Z,96876.63
2018-08-23T03:09:35.721Z,96872.67
2018-08-23T03:14:30.840Z,96867.42
2018-08-23T03:19:25.338Z,96875.80
2018-08-23T03:24:21.675Z,96868.92
2018-08-23T03:29:16.182Z,96862.34
2018-08-23T03:34:10.745Z,96856.27
2018-08-23T03:39:08.145Z,96848.77
2018-08-23T03:44:02.633Z,96848.09
2018-08-23T03:49:04.101Z,96837.97
2018-08-23T03:54:00.553Z,96843.31
2018-08-23T03:58:55.055Z,96838.48
2018-08-23T04:03:49.797Z,96845.11
2018-08-23T04:08:45.957Z,96851.08
2018-08-23T04:13:40.460Z,96849.81
2018-08-23T04:18:34.940Z,96849.86
2018-08-23T04:23:29.469Z,96848.17
2018-08-23T04:28:23.973Z,96849.23
2018-08-23T04:33:18.548Z,96864.25
2018-08-23T04:38:13.049Z,96858.66
2018-08-23T04:43:07.686Z,96857.53
2018-08-23T04:48:05.183Z,96857.23
2018-08-23T04:52:59.689Z,96857.60
2018-08-23T04:57:54.368Z,96870.36
2018-08-23T05:02:48.893Z,96872.78
2018-08-23T05:07:43.422Z,96869.18
2018-08-23T05:12:37.908Z,96876.95
2018-08-23T05:17:32.612Z,96878.17
2018-08-23T05:22:27.119Z,96876.78
2018-08-23T05:27:22.364Z,96876.78
2018-08-23T05:32:18.938Z,96866.64
2018-08-23T05:37:13.329Z,96866.09
2018-08-23T05:42:07.713Z,96866.03
2018-08-23T05:47:02.132Z,96853.20
2018-08-23T05:51:59.620Z,96859.91
2018-08-23T05:56:54.060Z,96857.73
2018-08-23T06:01:48.904Z,96852.39
2018-08-23T06:06:43.379Z,96860.79
2018-08-23T06:11:37.932Z,96864.16
2018-08-23T06:16:44.289Z,96861.91
2018-08-23T06:21:38.676Z,96853.58
2018-08-23T06:26:44.484Z,96856.53
2018-08-23T06:31:59.890Z,96855.53
2018-08-23T06:36:54.936Z,96851.83
2018-08-23T06:42:01.054Z,96849.81
2018-08-23T06:46:55.460Z,96848.20
2018-08-23T06:52:07.036Z,96850.95
2018-08-23T06:57:01.550Z,96847.75
2018-08-23T07:01:56.125Z,96848.22
2018-08-23T07:06:53.931Z,96846.41
2018-08-23T07:11:48.452Z,96849.97
2018-08-23T07:16:44.732Z,96846.64
2018-08-23T07:21:39.225Z,96850.28
2018-08-23T07:26:33.723Z,96848.41
2018-08-23T07:31:28.126Z,96849.74
2018-08-23T07:36:31.125Z,96845.80
2018-08-23T07:41:25.708Z,96848.94
2018-08-23T07:46:22.699Z,96845.44
2018-08-23T07:51:24.970Z,96842.98
2018-08-23T07:56:23.538Z,96847.78
2018-08-23T08:01:17.948Z,96841.77
2018-08-23T08:06:28.099Z,96834.56
2018-08-23T08:11:22.604Z,96843.59
2018-08-23T08:16:19.344Z,96836.38
2018-08-23T08:21:18.771Z,96840.47
2018-08-23T08:26:13.193Z,96845.64
2018-08-23T08:31:07.959Z,96836.39
2018-08-23T08:36:04.703Z,96839.63
2018-08-23T08:41:00.644Z,96832.75
2018-08-23T08:46:01.045Z,96831.13
2018-08-23T08:51:22.197Z,96830.95
2018-08-23T08:56:18.736Z,96826.94
2018-08-23T09:01:13.131Z,96821.95
2018-08-23T09:06:11.923Z,96821.40
2018-08-23T09:11:07.904Z,96818.12
2018-08-23T09:16:09.183Z,96816.96
2018-08-23T09:21:04.342Z,96821.37
2018-08-23T09:26:00.796Z,96809.46
2018-08-23T09:30:58.048Z,96810.55
2018-08-23T09:36:01.068Z,96810.98
2018-08-23T09:40:56.807Z,96806.08
2018-08-23T09:45:52.117Z,96803.91
2018-08-23T09:50:49.125Z,96803.58
2018-08-23T09:55:47.204Z,96791.81
2018-08-23T10:00:46.964Z,96791.00
2018-08-23T10:05:48.761Z,96792.94
2018-08-23T10:10:48.346Z,96785.75
2018-08-23T10:15:45.920Z,96786.58
2018-08-23T10:21:01.337Z,96783.75
2018-08-23T10:25:58.634Z,96780.02
2018-08-23T10:30:53.489Z,96776.34
2018-08-23T10:35:49.224Z,96778.14
2018-08-23T10:46:48.724Z,96776.16
2018-08-23T10:51:43.246Z,96764.37
2018-08-23T10:56:39.860Z,96760.72
2018-08-23T11:01:34.293Z,96753.12
2018-08-23T11:06:28.750Z,96751.73
2018-08-23T11:11:37.424Z,96740.16
2018-08-23T11:16:41.041Z,96734.42
2018-08-23T11:21:37.998Z,96713.92
2018-08-23T11:26:33.217Z,96717.48
2018-08-23T11:31:28.612Z,96700.13
2018-08-23T11:36:23.201Z,96695.84
2018-08-23T11:41:17.855Z,96688.36
2018-08-23T11:46:14.865Z,96676.08
2018-08-23T11:51:09.317Z,96665.43
2018-08-23T11:56:04.589Z,96654.48
2018-08-23T12:01:04.242Z,96647.41
2018-08-23T12:05:58.700Z,96634.96
2018-08-23T12:10:54.328Z,96631.45
2018-08-23T12:15:48.966Z,96625.91
2018-08-23T12:20:43.385Z,96618.96
2018-08-23T12:25:37.803Z,96619.44
2018-08-23T12:30:32.453Z,96598.22
2018-08-23T12:35:27.830Z,96597.33
2018-08-23T12:40:27.869Z,96586.16
2018-08-23T12:45:22.332Z,96580.50
2018-08-23T12:50:16.931Z,96570.20
2018-08-23T12:55:11.688Z,96583.13
2018-08-23T13:00:06.537Z,96585.34
2018-08-23T13:05:01.081Z,96585.72
2018-08-23T13:09:56.326Z,96591.36
2018-08-23T13:14:50.781Z,96593.11
2018-08-23T13:19:45.545Z,96586.05
2018-08-23T13:24:45.172Z,96578.64
2018-08-23T13:29:39.753Z,96571.83
2018-08-23T13:34:34.188Z,96566.19
2018-08-23T13:39:28.679Z,96568.29
2018-08-23T13:44:23.890Z,96568.15
2018-08-23T13:49:18.399Z,96586.63
2018-08-23T13:54:13.781Z,96589.02
2018-08-23T13:59:08.414Z,96602.99
2018-08-23T14:04:02.836Z,96642.20
2018-08-23T14:08:57.442Z,96659.62
2018-08-23T14:13:52.019Z,96652.37
2018-08-23T14:18:54.791Z,96628.58
2018-08-23T14:23:49.494Z,96617.87
2018-08-23T14:28:44.041Z,96603.32
2018-08-23T14:33:38.577Z,96598.30
2018-08-23T14:38:33.346Z,96586.69
2018-08-23T14:43:28.290Z,96576.28
2018-08-23T14:48:22.941Z,96583.02
2018-08-23T14:53:23.664Z,96586.06
2018-08-23T14:58:18.246Z,96612.89
2018-08-23T15:03:13.088Z,96703.55
2018-08-23T15:08:12.850Z,96692.08
2018-08-23T15:13:07.678Z,96698.31
2018-08-23T15:18:03.178Z,96729.72
2018-08-23T15:22:58.254Z,96737.24
2018-08-23T15:27:55.123Z,96707.98
2018-08-23T15:32:50.006Z,96686.31
2018-08-23T15:37:45.230Z,96677.08
2018-08-23T15:42:39.929Z,96661.64
2018-08-23T15:47:34.519Z,96650.80
2018-08-23T15:52:29.252Z,96649.17
2018-08-23T15:57:23.897Z,96639.77
2018-08-23T16:02:18.425Z,96634.63
2018-08-23T16:07:13.325Z,96631.71
2018-08-23T16:12:07.862Z,96630.28
2018-08-23T16:17:07.827Z,96633.56
2018-08-23T16:22:13.871Z,96632.03
2018-08-23T16:27:19.752Z,96636.74
2018-08-23T16:32:28.525Z,96635.31
2018-08-23T16:37:23.433Z,96628.93
2018-08-23T16:42:28.115Z,96631.14
2018-08-23T16:47:36.338Z,96647.21
2018-08-23T16:52:31.689Z,96656.09
2018-08-23T16:57:26.398Z,96649.01
2018-08-23T17:02:20.947Z,96652.71
2018-08-23T17:07:16.733Z,96655.31
2018-08-23T17:12:11.520Z,96638.72
2018-08-23T17:17:11.298Z,96624.17
2018-08-23T17:22:05.905Z,96623.57
2018-08-23T17:27:00.424Z,96629.75
2018-08-23T17:31:55.541Z,96632.48
2018-08-23T17:36:50.454Z,96627.49
2018-08-23T17:41:45.535Z,96624.48
2018-08-23T17:46:40.153Z,96644.20
2018-08-23T17:51:34.725Z,96646.70
2018-08-23T17:56:29.309Z,96656.47
2018-08-23T18:01:23.849Z,96665.90
2018-08-23T18:06:18.444Z,96669.34
2018-08-23T18:11:13.081Z,96675.03
2018-08-23T18:16:13.139Z,96666.56
2018-08-23T18:21:07.711Z,96664.50
2018-08-23T18:26:02.485Z,96660.89
2018-08-23T18:30:57.140Z,96658.89
2018-08-23T18:35:51.806Z,96640.61
2018-08-23T18:40:46.336Z,96639.09
2018-08-23T18:45:40.983Z,96629.37
2018-08-23T18:50:35.817Z,96625.89
2018-08-23T18:55:30.771Z,96633.55
2018-08-23T19:00:25.710Z,96630.03
2018-08-23T19:05:20.314Z,96635.14
2018-08-23T19:10:15.661Z,96639.87
2018-08-23T19:15:10.313Z,96633.72
2018-08-23T19:20:05.619Z,96638.83
2018-08-23T19:25:00.550Z,96652.36
2018-08-23T19:29:55.193Z,96657.69
2018-08-23T19:34:49.944Z,96665.67
2018-08-23T19:39:45.028Z,96675.25
2018-08-23T19:44:44.869Z,96676.61
2018-08-23T19:49:44.902Z,96675.48
2018-08-23T19:54:40.128Z,96673.11
2018-08-23T19:59:34.910Z,96676.88
2018-08-23T20:04:30.118Z,96705.20
2018-08-23T20:09:24.929Z,96738.04
2018-08-23T20:14:19.902Z,96717.67
2018-08-23T20:19:14.533Z,96720.06
2018-08-23T20:24:09.224Z,96716.78
2018-08-23T20:29:03.998Z,96713.99
2018-08-23T20:33:58.640Z,96702.70
2018-08-23T20:38:53.356Z,96701.10
2018-08-23T20:43:48.101Z,96701.02
2018-08-23T20:48:42.846Z,96700.53
2018-08-23T20:53:37.513Z,96712.22
2018-08-23T20:58:32.125Z,96727.62
2018-08-23T21:03:26.822Z,96738.17
2018-08-23T21:08:21.672Z,96707.98
2018-08-23T21:13:16.381Z,96729.56
2018-08-23T21:18:12.280Z,96732.43
2018-08-23T21:23:07.138Z,96728.94
2018-08-23T21:28:01.826Z,96758.62
2018-08-23T21:32:56.499Z,96749.57
2018-08-23T21:37:51.263Z,96736.98
2018-08-23T21:42:46.026Z,96722.78
2018-08-23T21:47:40.753Z,96704.19
2018-08-23T21:52:35.494Z,96696.45
2018-08-23T21:57:30.417Z,96685.69
2018-08-23T22:02:25.181Z,96681.30
2018-08-23T22:07:20.065Z,96686.44
2018-08-23T22:12:14.898Z,96692.84
2018-08-23T22:17:09.587Z,96668.30
2018-08-23T22:22:04.189Z,96664.56
2018-08-23T22:26:58.781Z,96651.03
2018-08-23T22:31:54.381Z,96652.52
2018-08-23T22:36:49.090Z,96653.00
2018-08-23T22:41:43.766Z,96672.02
2018-08-23T22:46:38.545Z,96681.80
2018-08-23T22:51:33.273Z,96676.91
2018-08-23T22:56:27.914Z,96673.47
2018-08-23T23:01:22.546Z,96667.28
2018-08-23T23:06:17.092Z,96661.35
2018-08-23T23:11:11.641Z,96664.23
2018-08-23T23:16:06.270Z,96668.23
2018-08-23T23:21:00.832Z,96663.03
2018-08-23T23:25:55.462Z,96679.20
2018-08-23T23:30:50.012Z,96695.38
2018-08-23T23:35:44.620Z,96705.02
2018-08-23T23:40:39.145Z,96702.10
2018-08-23T23:45:33.705Z,96698.00
2018-08-23T23:50:28.204Z,96705.14
2018-08-23T23:55:22.809Z,96725.58
